Time;durP1;ratioP1;P1;durP2;ratioP2;P2;SDS_P1;SDS_P2;PMS_P1;PMS_P2;Temp;Humidity;BMP_temperature;BMP_pressure;BME280_temperature;BME280_humidity;BME280_pressure;Samples;Min_cycle;Max_cycle;Signal;HPM_P1;HPM_P2
2024/03/06 00:02:13;;;;;;;0.40;0.20;;;10.00;61.70;;;;;;6309842;28;20051;-76
2024/03/06 00:05:13;;;;;;;2.22;0.30;;;10.00;61.70;;;;;;6320401;28;20028;-76
2024/03/06 00:08:15;;;;;;;0.55;0.45;;;10.00;61.60;;;;;;6332484;28;20028;-77
2024/03/06 00:11:16;;;;;;;0.40;0.40;;;10.00;61.50;;;;;;6327817;28;20020;-76
2024/03/06 00:14:17;;;;;;;0.20;0.20;;;10.00;61.40;;;;;;6308980;28;20044;-76
2024/03/06 00:17:19;;;;;;;0.30;0.30;;;10.10;61.60;;;;;;6301692;28;20063;-78
2024/03/06 00:20:21;;;;;;;0.50;0.43;;;10.00;61.50;;;;;;6316305;28;20090;-75
2024/03/06 00:23:23;;;;;;;0.32;0.28;;;10.00;61.60;;;;;;6302326;28;20020;-76
2024/03/06 00:26:24;;;;;;;0.85;0.40;;;10.10;61.40;;;;;;6299764;28;20220;-76
2024/03/06 00:29:26;;;;;;;0.75;0.30;;;10.00;61.10;;;;;;6296614;28;20036;-75
2024/03/06 00:32:28;;;;;;;0.75;0.60;;;10.00;61.00;;;;;;6310724;28;20044;-76
2024/03/06 00:35:29;;;;;;;0.50;0.50;;;10.00;61.00;;;;;;6311762;28;20024;-78
2024/03/06 00:38:30;;;;;;;0.25;0.25;;;10.00;61.10;;;;;;6316449;28;20040;-76
2024/03/06 00:41:31;;;;;;;2.10;0.57;;;10.00;61.10;;;;;;6322224;28;20079;-76
2024/03/06 00:44:33;;;;;;;0.40;0.40;;;10.10;61.30;;;;;;6301238;28;20087;-76
2024/03/06 00:47:35;;;;;;;3.13;0.75;;;10.10;61.40;;;;;;6319888;28;20827;-76
2024/03/06 00:50:36;;;;;;;0.35;0.35;;;10.20;61.60;;;;;;6297039;28;20036;-76
2024/03/06 00:53:37;;;;;;;0.40;0.40;;;10.30;61.60;;;;;;6316530;28;20028;-78
2024/03/06 00:56:40;;;;;;;0.60;0.47;;;10.40;61.50;;;;;;6319924;28;20027;-76
2024/03/06 00:59:42;;;;;;;0.30;0.30;;;10.50;61.50;;;;;;6301639;28;20032;-77
2024/03/06 01:02:42;;;;;;;5.05;0.63;;;10.60;61.40;;;;;;6324474;28;20027;-76
2024/03/06 01:05:45;;;;;;;1.48;0.60;;;10.60;61.30;;;;;;6322629;28;20032;-77
2024/03/06 01:08:47;;;;;;;1.27;0.80;;;10.60;61.20;;;;;;6323953;28;20024;-77
2024/03/06 01:11:48;;;;;;;1.60;0.60;;;10.60;61.40;;;;;;6304022;28;20016;-74
2024/03/06 01:14:49;;;;;;;0.52;0.52;;;10.60;61.50;;;;;;6296478;28;20088;-75
2024/03/06 01:17:50;;;;;;;0.73;0.73;;;10.60;62.40;;;;;;6319799;28;20035;-77
2024/03/06 01:20:51;;;;;;;0.80;0.65;;;10.60;61.70;;;;;;6301676;28;20100;-76
2024/03/06 01:23:52;;;;;;;1.10;0.75;;;10.50;61.90;;;;;;6299167;28;20019;-76
2024/03/06 01:26:53;;;;;;;0.95;0.50;;;10.60;62.10;;;;;;6300786;28;20013;-75
2024/03/06 01:29:55;;;;;;;0.65;0.60;;;10.50;62.10;;;;;;6307590;28;20024;-76
2024/03/06 01:32:56;;;;;;;3.20;1.00;;;10.60;62.20;;;;;;6301557;28;20144;-76
2024/03/06 01:35:57;;;;;;;0.75;0.50;;;10.50;62.30;;;;;;6302357;28;20040;-76
2024/03/06 01:39:00;;;;;;;1.23;0.70;;;10.50;62.40;;;;;;6324759;28;20119;-75
2024/03/06 01:42:01;;;;;;;0.65;0.50;;;10.60;62.40;;;;;;6324627;28;20488;-75
2024/03/06 01:45:03;;;;;;;0.80;0.50;;;10.50;62.50;;;;;;6323012;28;20033;-76
2024/03/06 01:48:08;;;;;;;1.25;0.80;;;10.60;62.40;;;;;;6324779;28;20054;-76
2024/03/06 01:51:09;;;;;;;2.28;0.82;;;10.60;62.40;;;;;;6318777;28;20028;-76
2024/03/06 01:54:10;;;;;;;2.50;0.93;;;10.50;62.50;;;;;;6298246;28;20032;-76
2024/03/06 01:57:14;;;;;;;0.73;0.73;;;10.50;62.60;;;;;;6283033;28;20055;-76
2024/03/06 02:00:17;;;;;;;0.68;0.63;;;10.60;62.60;;;;;;6311317;28;20040;-76
2024/03/06 02:03:21;;;;;;;0.35;0.35;;;10.60;62.50;;;;;;6292087;28;20136;-76
2024/03/06 02:06:22;;;;;;;0.40;0.40;;;10.60;62.30;;;;;;6319447;28;20032;-76
2024/03/06 02:09:23;;;;;;;0.73;0.45;;;10.60;62.30;;;;;;6318339;28;20085;-75
2024/03/06 02:12:25;;;;;;;0.63;0.47;;;10.60;62.10;;;;;;6123292;28;5521960;-76
2024/03/06 02:15:27;;;;;;;0.47;0.47;;;10.50;62.20;;;;;;6309524;28;20032;-77
2024/03/06 02:18:30;;;;;;;0.20;0.20;;;10.50;62.50;;;;;;6295221;28;20024;-76
2024/03/06 02:21:32;;;;;;;1.27;0.60;;;10.30;62.40;;;;;;6301705;28;20020;-77
2024/03/06 02:24:35;;;;;;;3.33;0.50;;;10.20;62.70;;;;;;6318038;28;20039;-76
2024/03/06 02:27:36;;;;;;;0.93;0.40;;;10.20;62.90;;;;;;6305231;28;20079;-76
2024/03/06 02:30:37;;;;;;;1.45;0.63;;;10.10;62.80;;;;;;6296053;28;20024;-77
2024/03/06 02:33:37;;;;;;;2.78;0.93;;;10.00;63.30;;;;;;6322558;28;20031;-77
2024/03/06 02:36:39;;;;;;;0.98;0.50;;;10.00;63.60;;;;;;6320716;28;20047;-77
2024/03/06 02:39:40;;;;;;;0.20;0.20;;;10.00;64.00;;;;;;6298388;28;20454;-78
2024/03/06 02:42:50;;;;;;;0.30;0.30;;;9.90;63.70;;;;;;6287598;28;20078;-76
2024/03/06 02:45:50;;;;;;;1.08;0.47;;;9.80;63.40;;;;;;6321819;28;20429;-76
2024/03/06 02:48:53;;;;;;;0.38;0.38;;;9.70;63.10;;;;;;6306238;28;20111;-75
2024/03/06 02:51:54;;;;;;;0.60;0.40;;;9.60;63.10;;;;;;6300590;28;20083;-76
2024/03/06 02:54:58;;;;;;;0.20;0.20;;;9.60;63.40;;;;;;6315756;28;20031;-77
2024/03/06 02:58:02;;;;;;;0.47;0.45;;;9.60;63.70;;;;;;6325264;28;20028;-76
2024/03/06 03:01:03;;;;;;;0.90;0.47;;;9.70;63.90;;;;;;6325673;28;20043;-74
2024/03/06 03:04:06;;;;;;;0.70;0.70;;;9.80;63.90;;;;;;6327363;28;20116;-76
2024/03/06 03:07:10;;;;;;;1.83;0.65;;;9.80;64.00;;;;;;6312796;28;20464;-77
2024/03/06 03:10:13;;;;;;;0.60;0.52;;;9.80;64.10;;;;;;6329746;28;20096;-77
2024/03/06 03:13:14;;;;;;;0.60;0.57;;;9.80;63.90;;;;;;6324501;28;20021;-76
2024/03/06 03:16:17;;;;;;;1.00;0.57;;;9.80;63.60;;;;;;6311469;28;20035;-76
2024/03/06 03:19:19;;;;;;;0.77;0.70;;;9.70;63.30;;;;;;6306350;28;20076;-77
2024/03/06 03:22:57;;;;;;;0.82;0.80;;;9.60;63.40;;;;;;6315534;28;20036;-76
2024/03/06 03:26:24;;;;;;;4.78;1.02;;;9.60;63.90;;;;;;6328533;28;20122;-76
2024/03/06 03:29:25;;;;;;;1.10;0.90;;;9.60;64.20;;;;;;6313576;28;20206;-76
2024/03/06 03:32:26;;;;;;;2.47;1.05;;;9.60;64.60;;;;;;6332348;28;20046;-76
2024/03/06 03:35:28;;;;;;;2.60;1.23;;;9.70;64.90;;;;;;6332482;28;20042;-77
2024/03/06 03:38:29;;;;;;;1.33;1.05;;;9.70;65.00;;;;;;6316701;28;20043;-76
2024/03/06 03:41:32;;;;;;;1.30;0.90;;;9.70;65.00;;;;;;6311350;28;20020;-76
2024/03/06 03:44:33;;;;;;;0.80;0.75;;;9.80;65.20;;;;;;6324597;28;20024;-76
2024/03/06 03:47:35;;;;;;;2.40;1.02;;;9.80;65.30;;;;;;6313229;28;20034;-76
2024/03/06 03:50:36;;;;;;;4.25;0.95;;;9.80;65.30;;;;;;6301256;28;20111;-77
2024/03/06 03:53:40;;;;;;;2.38;1.10;;;9.80;65.30;;;;;;6311445;28;20157;-77
2024/03/06 03:56:41;;;;;;;2.05;1.20;;;9.80;65.30;;;;;;6304108;28;20029;-77
2024/03/06 03:59:43;;;;;;;1.27;0.90;;;9.80;65.10;;;;;;6311735;28;20028;-77
2024/03/06 04:02:44;;;;;;;2.10;1.45;;;9.80;65.20;;;;;;6307539;28;20031;-76
2024/03/06 04:05:46;;;;;;;1.55;1.25;;;9.80;65.30;;;;;;6282606;28;20046;-76
2024/03/06 04:08:49;;;;;;;0.93;0.82;;;9.80;65.30;;;;;;6310326;28;20019;-77
2024/03/06 04:11:49;;;;;;;1.25;1.00;;;9.90;65.40;;;;;;6319420;28;20025;-75
2024/03/06 04:14:50;;;;;;;1.85;0.93;;;9.80;65.10;;;;;;6320205;28;20032;-75
2024/03/06 04:17:52;;;;;;;1.15;0.88;;;9.80;65.10;;;;;;6325955;28;20016;-77
2024/03/06 04:20:54;;;;;;;2.75;1.33;;;9.90;64.90;;;;;;6307201;28;20196;-76
2024/03/06 04:23:55;;;;;;;3.92;1.20;;;9.90;64.80;;;;;;6319438;28;20036;-75
2024/03/06 04:26:56;;;;;;;0.70;0.70;;;9.90;64.70;;;;;;6286363;28;20028;-76
2024/03/06 04:29:56;;;;;;;1.20;0.90;;;9.80;64.70;;;;;;6321727;28;20117;-76
2024/03/06 04:32:57;;;;;;;0.63;0.63;;;9.80;64.60;;;;;;6307117;28;20024;-78
2024/03/06 04:36:00;;;;;;;1.52;0.80;;;9.90;64.40;;;;;;6272515;28;20127;-76
2024/03/06 04:39:07;;;;;;;1.20;0.95;;;9.80;63.80;;;;;;6333276;28;20028;-76
2024/03/06 04:46:31;;;;;;;0.77;0.57;;;9.80;63.60;;;;;;6337260;28;20058;-76
2024/03/06 04:49:35;;;;;;;0.70;0.63;;;9.90;63.50;;;;;;6334351;28;20027;-76
2024/03/06 04:52:37;;;;;;;0.60;0.60;;;9.80;63.40;;;;;;6333963;28;20497;-76
2024/03/06 04:55:38;;;;;;;1.52;0.35;;;9.90;63.40;;;;;;6302333;28;20033;-75
2024/03/06 04:58:40;;;;;;;0.88;0.70;;;9.90;63.30;;;;;;6315560;28;20091;-75
2024/03/06 05:01:44;;;;;;;0.85;0.73;;;9.90;63.20;;;;;;6336199;28;20032;-76
2024/03/06 05:04:47;;;;;;;1.05;0.77;;;9.80;63.20;;;;;;6334389;28;20061;-76
2024/03/06 05:07:48;;;;;;;1.52;0.68;;;9.90;63.30;;;;;;6312677;28;20028;-77
2024/03/06 05:10:49;;;;;;;1.92;1.20;;;9.90;63.30;;;;;;6310449;28;20029;-77
2024/03/06 05:13:50;;;;;;;1.52;1.08;;;9.90;63.40;;;;;;6315494;28;20032;-76
2024/03/06 05:16:53;;;;;;;2.03;1.15;;;10.00;63.50;;;;;;6336066;28;20070;-76
2024/03/06 05:19:54;;;;;;;1.17;1.00;;;10.00;63.40;;;;;;6304374;28;20024;-77
2024/03/06 05:22:56;;;;;;;0.77;0.57;;;10.10;63.30;;;;;;6318781;28;20050;-76
2024/03/06 05:25:59;;;;;;;1.58;0.90;;;10.10;63.10;;;;;;6329694;28;20123;-77
2024/03/06 05:29:01;;;;;;;3.35;1.02;;;10.00;62.90;;;;;;6328212;28;20035;-77
2024/03/06 05:32:03;;;;;;;0.60;0.60;;;10.00;62.60;;;;;;6327593;28;20456;-77
2024/03/06 05:35:11;;;;;;;1.80;1.23;;;10.20;62.60;;;;;;6330813;28;20091;-76
2024/03/06 05:38:12;;;;;;;0.85;0.85;;;10.10;62.30;;;;;;6333780;28;20043;-76
2024/03/06 05:41:15;;;;;;;4.00;1.98;;;10.20;62.10;;;;;;6334509;28;20057;-74
2024/03/06 05:44:16;;;;;;;1.08;0.88;;;10.20;62.10;;;;;;6336307;28;20077;-77
2024/03/06 05:47:16;;;;;;;3.05;0.95;;;10.20;61.90;;;;;;6324463;28;20021;-77
2024/03/06 05:50:18;;;;;;;1.70;0.90;;;10.20;61.80;;;;;;6273717;28;20074;-76
2024/03/06 05:53:19;;;;;;;1.73;0.75;;;10.20;61.50;;;;;;6302855;28;20015;-76
2024/03/06 05:56:20;;;;;;;3.25;1.25;;;10.20;61.30;;;;;;6314742;28;20016;-76
2024/03/06 05:59:21;;;;;;;7.97;1.30;;;10.20;61.40;;;;;;6289150;28;20064;-76
2024/03/06 06:02:23;;;;;;;1.63;1.15;;;10.20;61.70;;;;;;6298246;28;20031;-76
2024/03/06 06:05:24;;;;;;;2.53;1.30;;;10.20;62.30;;;;;;6305320;28;20028;-77
2024/03/06 06:08:26;;;;;;;4.13;1.50;;;10.30;61.90;;;;;;6304692;28;20028;-78
2024/03/06 06:11:27;;;;;;;1.95;1.60;;;10.20;61.90;;;;;;6325338;28;20120;-76
2024/03/06 06:14:29;;;;;;;5.47;1.63;;;10.30;62.20;;;;;;6312823;28;20091;-76
2024/03/06 06:17:30;;;;;;;4.28;1.98;;;10.30;62.50;;;;;;6312976;28;20104;-76
2024/03/06 06:20:31;;;;;;;3.35;1.90;;;10.30;62.80;;;;;;6314367;28;20021;-77
2024/03/06 06:23:35;;;;;;;6.40;1.73;;;10.30;62.90;;;;;;6308551;28;20067;-76
2024/03/06 06:26:36;;;;;;;6.10;3.35;;;10.30;63.10;;;;;;6312618;28;20038;-77
2024/03/06 06:29:39;;;;;;;3.33;2.47;;;10.30;63.30;;;;;;6330822;28;20094;-75
2024/03/06 06:32:42;;;;;;;3.28;2.58;;;10.30;63.50;;;;;;6312120;28;20120;-76
2024/03/06 06:35:44;;;;;;;2.53;1.90;;;10.30;63.60;;;;;;6312711;28;20037;-78
2024/03/06 06:38:44;;;;;;;2.75;1.98;;;10.30;63.60;;;;;;6307824;28;20028;-77
2024/03/06 06:41:46;;;;;;;4.00;2.30;;;10.30;63.80;;;;;;6313743;28;20035;-77
2024/03/06 06:44:46;;;;;;;4.07;2.53;;;10.30;63.90;;;;;;6312697;28;20041;-75
2024/03/06 06:47:51;;;;;;;3.90;2.13;;;10.30;63.80;;;;;;6336541;28;20015;-76
2024/03/06 06:50:53;;;;;;;4.50;3.00;;;10.30;64.00;;;;;;6337886;28;20044;-76
2024/03/06 06:53:55;;;;;;;5.93;2.97;;;10.30;64.00;;;;;;6319427;28;21418;-77
2024/03/06 06:56:56;;;;;;;4.53;2.75;;;10.40;64.20;;;;;;6308731;28;20086;-78
2024/03/06 06:59:57;;;;;;;2.78;2.38;;;10.40;64.10;;;;;;6334472;28;20052;-76
2024/03/06 07:02:58;;;;;;;2.88;1.95;;;10.40;64.10;;;;;;6350810;28;20387;-77
2024/03/06 07:05:59;;;;;;;5.72;2.72;;;10.40;64.10;;;;;;6332195;28;20032;-78
2024/03/06 07:09:00;;;;;;;4.05;2.15;;;10.50;64.00;;;;;;6303484;28;20142;-76
2024/03/06 07:12:02;;;;;;;4.18;2.20;;;10.50;64.00;;;;;;6310138;28;20044;-75
2024/03/06 07:15:04;;;;;;;4.70;2.72;;;10.60;64.00;;;;;;6332728;28;20204;-77
2024/03/06 07:18:05;;;;;;;6.07;2.67;;;10.60;63.90;;;;;;6324459;28;20048;-76
2024/03/06 07:21:07;;;;;;;3.00;2.15;;;10.60;63.80;;;;;;6310393;28;20080;-77
2024/03/06 07:24:08;;;;;;;5.00;2.38;;;10.70;63.70;;;;;;6327756;28;20028;-77
2024/03/06 07:27:09;;;;;;;3.50;2.50;;;10.70;64.50;;;;;;6328286;28;20514;-75
2024/03/06 07:30:12;;;;;;;6.13;2.15;;;10.80;63.70;;;;;;6291869;28;20021;-76
2024/03/06 07:33:13;;;;;;;3.38;2.03;;;10.80;63.50;;;;;;6309504;28;20035;-76
2024/03/06 07:36:16;;;;;;;5.00;2.72;;;10.80;63.50;;;;;;6329648;28;20051;-75
2024/03/06 07:39:18;;;;;;;3.42;1.67;;;10.90;63.60;;;;;;6309442;28;20142;-77
2024/03/06 07:42:19;;;;;;;2.75;1.52;;;10.90;63.40;;;;;;6315305;28;20016;-75
2024/03/06 07:45:20;;;;;;;4.70;2.42;;;10.90;63.20;;;;;;6324700;28;20777;-76
2024/03/06 07:48:21;;;;;;;3.92;2.03;;;11.00;63.10;;;;;;6307745;28;20093;-77
2024/03/06 07:51:23;;;;;;;5.88;1.90;;;11.00;62.90;;;;;;6317584;28;20050;-76
2024/03/06 07:54:24;;;;;;;5.60;2.88;;;11.10;62.90;;;;;;6310509;28;20119;-77
2024/03/06 07:57:25;;;;;;;3.00;1.73;;;11.10;62.70;;;;;;6302590;28;20092;-77
2024/03/06 08:00:27;;;;;;;2.13;1.70;;;11.20;62.60;;;;;;6284411;28;20032;-77
2024/03/06 08:03:28;;;;;;;2.65;1.50;;;11.20;62.50;;;;;;6300648;28;20025;-77
2024/03/06 08:06:31;;;;;;;1.58;1.35;;;11.20;62.30;;;;;;6317412;28;20139;-76
2024/03/06 08:09:32;;;;;;;2.70;1.63;;;11.30;61.90;;;;;;6314494;28;20035;-76
2024/03/06 08:12:34;;;;;;;2.50;1.30;;;11.30;61.60;;;;;;6322924;28;20045;-76
2024/03/06 08:15:37;;;;;;;1.80;1.30;;;11.40;61.40;;;;;;6325502;28;20038;-78
2024/03/06 08:18:38;;;;;;;2.72;1.83;;;11.50;61.00;;;;;;6325746;28;20009;-75
2024/03/06 08:21:39;;;;;;;2.95;1.65;;;11.50;60.60;;;;;;6301038;28;20770;-76
2024/03/06 08:24:40;;;;;;;2.97;1.65;;;11.50;60.50;;;;;;6293153;28;20051;-77
2024/03/06 08:27:42;;;;;;;7.43;1.88;;;11.60;60.30;;;;;;6314597;28;20020;-77
2024/03/06 08:30:44;;;;;;;6.03;2.05;;;11.60;60.30;;;;;;6312246;28;20062;-76
2024/03/06 08:33:47;;;;;;;3.88;1.92;;;11.60;60.30;;;;;;6296536;28;20031;-77
2024/03/06 08:36:48;;;;;;;6.85;2.30;;;11.60;60.40;;;;;;6319773;28;20028;-77
2024/03/06 08:39:51;;;;;;;6.72;2.70;;;11.60;60.60;;;;;;6317927;28;20023;-77
2024/03/06 08:42:52;;;;;;;4.47;2.15;;;11.70;60.50;;;;;;6313708;28;20129;-76
2024/03/06 08:45:53;;;;;;;6.22;2.45;;;11.80;60.40;;;;;;6324563;28;20108;-80
2024/03/06 08:48:55;;;;;;;2.80;1.80;;;11.80;60.00;;;;;;6314543;28;20103;-76
2024/03/06 08:51:57;;;;;;;4.70;2.38;;;12.00;59.90;;;;;;6296494;28;20557;-79
2024/03/06 08:54:57;;;;;;;6.07;2.33;;;12.10;59.70;;;;;;6314868;28;20443;-77
2024/03/06 08:58:01;;;;;;;4.43;1.90;;;12.20;59.50;;;;;;6299810;28;20043;-77
2024/03/06 09:01:02;;;;;;;4.10;2.60;;;12.30;59.40;;;;;;6301651;28;20084;-77
2024/03/06 09:04:03;;;;;;;5.82;2.67;;;12.40;59.20;;;;;;6294896;28;20055;-76
2024/03/06 09:07:04;;;;;;;3.75;2.22;;;12.50;59.10;;;;;;6281461;28;20020;-78
2024/03/06 09:10:05;;;;;;;5.53;2.30;;;12.50;58.80;;;;;;6315747;28;20055;-77
2024/03/06 09:13:07;;;;;;;5.28;2.45;;;12.60;58.80;;;;;;6275793;28;20028;-77
2024/03/06 09:16:08;;;;;;;2.83;2.03;;;12.70;58.70;;;;;;6292714;28;20093;-78
2024/03/06 09:19:09;;;;;;;5.03;2.00;;;12.80;58.40;;;;;;6310647;28;20044;-76
2024/03/06 09:22:12;;;;;;;8.15;2.42;;;12.90;58.30;;;;;;6303616;28;20107;-76
2024/03/06 09:25:14;;;;;;;4.20;2.40;;;13.00;58.30;;;;;;6296571;28;20088;-76
2024/03/06 09:28:16;;;;;;;5.95;2.78;;;13.00;57.90;;;;;;6315918;28;20028;-78
2024/03/06 09:31:17;;;;;;;4.88;2.42;;;13.10;57.70;;;;;;6307102;28;20087;-76
2024/03/06 09:34:21;;;;;;;6.57;2.47;;;13.10;57.60;;;;;;6291882;28;20100;-76
2024/03/06 09:37:23;;;;;;;8.68;3.85;;;13.20;57.70;;;;;;6267909;28;20151;-76
2024/03/06 09:40:24;;;;;;;6.30;2.67;;;13.30;57.40;;;;;;6281665;28;20027;-76
2024/03/06 09:43:28;;;;;;;4.75;2.55;;;13.40;57.20;;;;;;6296622;28;20028;-77
2024/03/06 09:46:29;;;;;;;3.15;2.08;;;13.50;57.00;;;;;;6297608;28;20476;-76
2024/03/06 09:49:31;;;;;;;5.85;2.55;;;13.60;56.70;;;;;;6306090;28;20024;-78
2024/03/06 09:53:01;;;;;;;6.50;2.78;;;13.70;56.50;;;;;;6307991;28;20022;-75
2024/03/06 09:56:59;;;;;;;5.13;2.75;;;14.00;56.10;;;;;;6284801;28;20028;-78
2024/03/06 10:00:26;;;;;;;2.83;1.65;;;14.20;55.60;;;;;;6302240;28;20041;-78
2024/03/06 10:03:28;;;;;;;7.32;3.78;;;14.20;54.80;;;;;;6316118;28;20040;-77
2024/03/06 10:06:58;;;;;;;4.68;2.95;;;14.30;54.80;;;;;;6317830;28;20543;-76
2024/03/06 10:09:58;;;;;;;3.17;2.10;;;14.30;54.70;;;;;;6297142;28;20027;-77
2024/03/06 10:13:00;;;;;;;3.60;1.58;;;14.30;54.50;;;;;;6317716;28;20040;-76
2024/03/06 10:16:08;;;;;;;5.82;1.90;;;14.30;53.60;;;;;;6307503;28;20024;-77
2024/03/06 10:19:18;;;;;;;1.85;1.42;;;14.30;53.40;;;;;;6309325;28;20024;-77
2024/03/06 10:22:24;;;;;;;2.08;1.10;;;14.30;53.10;;;;;;6305348;28;20107;-79
2024/03/06 10:25:25;;;;;;;2.05;1.13;;;14.30;52.00;;;;;;6314028;28;20036;-77
2024/03/06 10:28:28;;;;;;;6.47;1.63;;;14.30;51.90;;;;;;6307587;28;20036;-78
2024/03/06 10:31:30;;;;;;;3.03;1.52;;;14.20;50.90;;;;;;6294074;28;20105;-76
2024/03/06 10:34:31;;;;;;;2.90;1.17;;;14.20;50.60;;;;;;6303048;28;20036;-76
2024/03/06 10:37:34;;;;;;;2.03;1.60;;;14.30;51.00;;;;;;6289112;28;20031;-77
2024/03/06 10:40:38;;;;;;;2.22;1.45;;;14.60;50.80;;;;;;6297423;28;20111;-76
2024/03/06 10:43:40;;;;;;;3.72;1.92;;;14.80;50.60;;;;;;6298000;28;20539;-75
2024/03/06 10:46:47;;;;;;;2.28;1.80;;;14.90;51.00;;;;;;6303135;28;20055;-77
2024/03/06 10:49:49;;;;;;;4.22;2.42;;;14.90;49.80;;;;;;6296813;28;20021;-76
2024/03/06 10:52:55;;;;;;;2.75;1.80;;;15.10;50.00;;;;;;6298194;28;20031;-77
2024/03/06 10:55:59;;;;;;;5.35;1.65;;;15.40;50.00;;;;;;6308406;28;20103;-76
2024/03/06 10:59:02;;;;;;;3.05;1.65;;;15.80;49.20;;;;;;6319695;28;20125;-77
2024/03/06 11:02:03;;;;;;;13.70;2.20;;;16.10;48.70;;;;;;6291183;28;20464;-77
2024/03/06 11:05:05;;;;;;;1.55;1.33;;;16.30;47.90;;;;;;6299713;28;20573;-77
2024/03/06 11:08:13;;;;;;;3.55;1.70;;;16.40;47.10;;;;;;6315951;28;20043;-76
2024/03/06 11:11:24;;;;;;;2.73;1.70;;;16.30;46.80;;;;;;6295640;28;20535;-79
2024/03/06 11:14:26;;;;;;;4.18;2.13;;;16.30;47.30;;;;;;6309933;28;20039;-76
2024/03/06 11:17:28;;;;;;;17.23;6.57;;;16.50;47.00;;;;;;6317050;28;20387;-76
2024/03/06 11:20:33;;;;;;;8.27;3.25;;;16.70;46.50;;;;;;6297266;28;20047;-76
2024/03/06 11:23:35;;;;;;;4.65;1.17;;;16.50;45.50;;;;;;6292262;28;20028;-76
2024/03/06 11:26:36;;;;;;;7.32;2.70;;;16.40;45.80;;;;;;6280222;28;20040;-76
2024/03/06 11:30:17;;;;;;;1.70;0.85;;;16.30;45.60;;;;;;6310866;28;20027;-75
2024/03/06 11:33:18;;;;;;;1.55;0.98;;;16.20;45.60;;;;;;6302971;28;20069;-78
2024/03/06 11:36:30;;;;;;;1.45;0.82;;;16.30;45.40;;;;;;6314017;28;20108;-77
2024/03/06 11:39:36;;;;;;;1.50;0.77;;;16.30;44.90;;;;;;6315595;28;20066;-76
2024/03/06 11:42:37;;;;;;;2.33;0.85;;;16.30;44.80;;;;;;6288645;28;20342;-75
2024/03/06 11:45:46;;;;;;;1.63;0.85;;;16.10;44.00;;;;;;6313579;28;20051;-76
2024/03/06 11:48:55;;;;;;;3.45;0.90;;;15.80;44.00;;;;;;6286162;28;20051;-78
2024/03/06 11:51:58;;;;;;;1.05;0.60;;;15.50;44.00;;;;;;6297717;28;20024;-76
2024/03/06 11:54:58;;;;;;;1.17;0.65;;;15.30;43.80;;;;;;6276952;28;20035;-75
2024/03/06 11:58:03;;;;;;;2.67;1.10;;;15.20;43.60;;;;;;6318513;28;20092;-80
2024/03/06 12:01:04;;;;;;;2.72;0.93;;;15.10;43.70;;;;;;6303047;28;20107;-77
2024/03/06 12:04:06;;;;;;;0.75;0.45;;;15.10;44.00;;;;;;6312661;28;20104;-77
2024/03/06 12:07:08;;;;;;;2.17;0.90;;;15.10;43.80;;;;;;6312794;28;20046;-76
2024/03/06 12:10:11;;;;;;;1.23;0.63;;;15.10;43.90;;;;;;6304989;28;20020;-78
2024/03/06 12:13:13;;;;;;;1.27;0.57;;;15.20;43.60;;;;;;6322055;28;20069;-78
2024/03/06 12:16:18;;;;;;;1.45;0.63;;;15.30;42.80;;;;;;6327512;28;20134;-78
2024/03/06 12:19:20;;;;;;;2.47;0.32;;;15.40;42.00;;;;;;6305865;28;20028;-78
2024/03/06 12:22:25;;;;;;;0.57;0.40;;;15.40;40.70;;;;;;6324338;28;20039;-79
2024/03/06 12:25:27;;;;;;;0.63;0.55;;;15.30;41.30;;;;;;6305977;28;20068;-76
2024/03/06 12:28:28;;;;;;;0.68;0.40;;;15.30;41.10;;;;;;6293523;28;20029;-76
2024/03/06 12:31:31;;;;;;;1.10;0.50;;;15.40;40.60;;;;;;6292330;28;20015;-78
2024/03/06 12:34:32;;;;;;;0.82;0.57;;;15.40;40.30;;;;;;6319964;28;20042;-77
2024/03/06 12:37:36;;;;;;;0.57;0.57;;;15.30;39.90;;;;;;6305013;28;20059;-77
2024/03/06 12:40:37;;;;;;;0.40;0.40;;;15.20;39.10;;;;;;6321178;28;20459;-77
2024/03/06 12:43:38;;;;;;;1.23;0.50;;;15.10;39.20;;;;;;6311850;28;20107;-77
2024/03/06 12:46:40;;;;;;;6.60;0.70;;;15.00;39.50;;;;;;6293787;28;20562;-76
2024/03/06 12:49:43;;;;;;;7.07;0.63;;;14.90;39.50;;;;;;6310470;28;20581;-77
2024/03/06 12:52:45;;;;;;;2.08;1.00;;;14.90;39.80;;;;;;6301939;28;20196;-78
2024/03/06 12:55:46;;;;;;;1.70;0.70;;;15.00;40.00;;;;;;6319365;28;20027;-77
2024/03/06 12:58:47;;;;;;;1.02;0.68;;;15.10;39.70;;;;;;6308640;28;20012;-78
2024/03/06 13:01:48;;;;;;;3.78;0.60;;;15.60;39.20;;;;;;6306393;28;20032;-77
2024/03/06 13:04:50;;;;;;;2.55;0.52;;;16.60;37.70;;;;;;6310777;28;20028;-77
2024/03/06 13:07:51;;;;;;;0.90;0.47;;;17.30;36.50;;;;;;6320882;28;20091;-78
2024/03/06 13:10:52;;;;;;;3.55;0.60;;;17.70;35.30;;;;;;6322306;28;20076;-76
2024/03/06 13:13:54;;;;;;;2.08;0.50;;;17.60;35.30;;;;;;6306796;28;20061;-76
2024/03/06 13:16:56;;;;;;;1.10;0.70;;;17.20;35.80;;;;;;6303249;28;20027;-78
2024/03/06 13:19:57;;;;;;;0.38;0.30;;;16.80;36.10;;;;;;6320966;28;20054;-77
2024/03/06 13:22:59;;;;;;;0.95;0.50;;;16.50;36.70;;;;;;6299295;28;20483;-75
2024/03/06 13:26:00;;;;;;;0.60;0.38;;;16.40;37.30;;;;;;6321663;28;20190;-78
2024/03/06 13:29:02;;;;;;;2.17;0.60;;;16.30;37.60;;;;;;6300333;28;20080;-77
2024/03/06 13:32:04;;;;;;;0.60;0.60;;;16.20;37.50;;;;;;6311772;28;20036;-78
2024/03/06 13:39:32;;;;;;;1.10;0.65;;;16.20;37.50;;;;;;6317449;28;20103;-76
2024/03/06 13:42:36;;;;;;;0.75;0.50;;;16.00;37.00;;;;;;6317865;28;20012;-77
2024/03/06 13:45:38;;;;;;;4.65;0.52;;;16.00;37.00;;;;;;6298778;28;20088;-78
2024/03/06 13:48:46;;;;;;;0.30;0.22;;;15.80;36.90;;;;;;6308463;28;20025;-77
2024/03/06 13:51:48;;;;;;;1.65;0.80;;;15.60;37.00;;;;;;6297113;28;20021;-78
2024/03/06 13:54:53;;;;;;;2.78;0.50;;;15.50;37.10;;;;;;6300878;28;20059;-77
2024/03/06 13:57:54;;;;;;;0.85;0.45;;;15.30;37.40;;;;;;6311744;28;20021;-77
2024/03/06 14:00:56;;;;;;;2.92;0.70;;;15.20;37.70;;;;;;6298456;28;21305;-77
2024/03/06 14:03:57;;;;;;;0.57;0.28;;;15.20;37.90;;;;;;6313501;28;20166;-76
2024/03/06 14:06:58;;;;;;;0.75;0.30;;;15.20;37.80;;;;;;6316690;28;20036;-77
2024/03/06 14:09:59;;;;;;;3.60;0.50;;;15.20;37.80;;;;;;6296389;28;20108;-76
2024/03/06 14:13:03;;;;;;;0.70;0.60;;;15.30;37.70;;;;;;6310930;28;20028;-77
2024/03/06 14:16:04;;;;;;;4.60;1.10;;;15.30;37.60;;;;;;6319531;28;20647;-76
2024/03/06 14:19:05;;;;;;;0.77;0.60;;;15.30;37.70;;;;;;6305784;28;20093;-77
2024/03/06 14:22:08;;;;;;;1.05;0.40;;;15.30;38.10;;;;;;6291073;28;20379;-77
2024/03/06 14:25:09;;;;;;;0.70;0.40;;;15.30;38.20;;;;;;6316010;28;20040;-76
2024/03/06 14:28:09;;;;;;;3.25;0.30;;;15.30;37.90;;;;;;6312012;28;20325;-76
2024/03/06 14:31:11;;;;;;;0.88;0.40;;;15.30;37.40;;;;;;6312881;28;20039;-77
2024/03/06 14:34:12;;;;;;;4.35;0.82;;;15.20;37.40;;;;;;6317474;28;20016;-77
2024/03/06 14:37:13;;;;;;;0.25;0.25;;;15.00;37.60;;;;;;6325637;28;20095;-78
2024/03/06 14:40:15;;;;;;;1.05;0.52;;;15.00;38.00;;;;;;6301837;28;20458;-77
2024/03/06 14:43:19;;;;;;;0.47;0.40;;;14.80;38.20;;;;;;6318502;28;20119;-77
2024/03/06 14:46:20;;;;;;;0.73;0.45;;;14.70;38.50;;;;;;6305176;28;20085;-77
2024/03/06 14:49:21;;;;;;;0.98;0.35;;;14.80;38.80;;;;;;6302514;28;20031;-78
2024/03/06 14:52:23;;;;;;;0.82;0.40;;;14.70;39.00;;;;;;6299060;28;20613;-77
2024/03/06 14:55:25;;;;;;;1.83;0.35;;;14.60;39.10;;;;;;6319079;28;20125;-77
2024/03/06 14:58:27;;;;;;;0.15;0.15;;;14.70;39.40;;;;;;6332037;28;20125;-78
2024/03/06 15:01:29;;;;;;;0.85;0.75;;;14.70;39.50;;;;;;6328041;28;20089;-77
2024/03/06 15:04:30;;;;;;;3.60;0.57;;;14.80;39.50;;;;;;6323115;28;20086;-76
2024/03/06 15:07:31;;;;;;;4.28;0.75;;;14.90;39.60;;;;;;6312744;28;20645;-77
2024/03/06 15:10:35;;;;;;;2.53;0.57;;;15.00;39.60;;;;;;6303564;28;20438;-78
2024/03/06 15:13:36;;;;;;;1.27;0.60;;;15.10;39.60;;;;;;6275283;28;20119;-79
2024/03/06 15:16:39;;;;;;;0.88;0.43;;;15.20;39.60;;;;;;6301073;28;20079;-77
2024/03/06 15:19:43;;;;;;;4.03;0.50;;;15.20;39.40;;;;;;6316717;28;20039;-77
2024/03/06 15:22:46;;;;;;;0.85;0.52;;;15.30;39.30;;;;;;6332468;28;20080;-78
2024/03/06 15:25:47;;;;;;;1.67;0.60;;;15.40;39.10;;;;;;6296177;28;20052;-78
2024/03/06 15:28:49;;;;;;;1.85;0.98;;;15.30;38.90;;;;;;6290128;28;20096;-76
2024/03/06 15:31:50;;;;;;;2.78;0.80;;;15.20;38.90;;;;;;6279680;28;20035;-76
2024/03/06 15:34:56;;;;;;;2.13;1.00;;;15.10;39.20;;;;;;6295785;28;20028;-77
2024/03/06 15:37:57;;;;;;;1.25;0.52;;;15.20;39.40;;;;;;6301435;28;20778;-78
2024/03/06 15:40:59;;;;;;;2.50;0.88;;;15.00;39.30;;;;;;6323264;28;20054;-77
2024/03/06 15:44:01;;;;;;;1.77;0.68;;;15.00;39.50;;;;;;6321081;28;20016;-77
2024/03/06 15:47:04;;;;;;;3.88;0.75;;;14.90;39.40;;;;;;6318147;28;20032;-78
2024/03/06 15:50:09;;;;;;;1.92;0.70;;;14.80;39.50;;;;;;6296455;28;20057;-78
2024/03/06 15:53:10;;;;;;;0.68;0.60;;;14.80;39.70;;;;;;6305457;28;20475;-78
2024/03/06 15:56:14;;;;;;;0.77;0.55;;;14.90;39.50;;;;;;6309428;28;20477;-78
2024/03/06 15:59:15;;;;;;;0.85;0.60;;;14.90;39.10;;;;;;6319986;28;20180;-78
2024/03/06 16:02:16;;;;;;;1.05;0.50;;;14.90;38.70;;;;;;6315123;28;20020;-76